Time;durP1;ratioP1;P1;durP2;ratioP2;P2;SDS_P1;SDS_P2;PMS_P1;PMS_P2;Temp;Humidity;BMP_temperature;BMP_pressure;BME280_temperature;BME280_humidity;BME280_pressure;Samples;Min_cycle;Max_cycle;Signal;HPM_P1;HPM_P2
2023/11/17 05:02:10;;;;;;;1.30;1.30;;;4.70;99.90;;;;;;5176679;23;20240;-73
2023/11/17 05:04:37;;;;;;;2.22;2.05;;;4.80;99.90;;;;;;4977626;28;20219;-73
2023/11/17 05:07:04;;;;;;;2.30;1.92;;;4.80;99.90;;;;;;4973896;28;20649;-73
2023/11/17 05:09:30;;;;;;;1.85;1.85;;;4.80;99.90;;;;;;4975742;28;20208;-73
2023/11/17 05:11:57;;;;;;;2.25;2.15;;;4.80;99.90;;;;;;4960318;28;20260;-73
2023/11/17 05:14:24;;;;;;;1.55;1.55;;;4.80;99.90;;;;;;4983882;23;20239;-74
2023/11/17 05:16:59;;;;;;;1.55;1.45;;;4.80;99.90;;;;;;4986252;28;20259;-73
2023/11/17 05:19:28;;;;;;;1.67;1.58;;;4.70;99.90;;;;;;4991896;28;20272;-74
2023/11/17 05:21:54;;;;;;;2.20;2.05;;;4.80;99.90;;;;;;4985542;28;20558;-74
2023/11/17 05:24:21;;;;;;;2.17;2.08;;;4.80;99.90;;;;;;4982067;28;20251;-74
2023/11/17 05:26:49;;;;;;;2.30;2.20;;;4.80;99.90;;;;;;4974304;28;20204;-74
2023/11/17 05:29:16;;;;;;;1.80;1.70;;;4.80;99.90;;;;;;4972562;28;20566;-73
2023/11/17 05:31:43;;;;;;;1.55;1.55;;;4.80;99.90;;;;;;4967395;28;20205;-74
2023/11/17 05:34:10;;;;;;;1.27;1.27;;;4.80;99.90;;;;;;4970888;28;20220;-74
2023/11/17 05:36:39;;;;;;;1.95;1.90;;;4.80;99.90;;;;;;4969804;28;20217;-74
2023/11/17 05:39:06;;;;;;;1.15;1.15;;;4.80;99.90;;;;;;4971376;28;20224;-74
2023/11/17 05:41:33;;;;;;;2.13;2.03;;;4.70;99.90;;;;;;4962423;28;20651;-74
2023/11/17 05:43:59;;;;;;;2.30;2.10;;;4.70;99.90;;;;;;4970036;28;20216;-74
2023/11/17 05:46:26;;;;;;;2.10;2.10;;;4.70;99.90;;;;;;4971640;28;20201;-73
2023/11/17 05:48:53;;;;;;;2.20;2.10;;;4.80;99.90;;;;;;4971926;28;20667;-73
2023/11/17 05:51:19;;;;;;;2.60;2.40;;;4.80;99.90;;;;;;4963308;28;20240;-74
2023/11/17 05:53:48;;;;;;;1.90;1.90;;;4.80;99.90;;;;;;4969360;28;20699;-74
2023/11/17 05:56:16;;;;;;;2.85;2.15;;;4.80;99.90;;;;;;4971820;28;20224;-73
2023/11/17 05:58:42;;;;;;;2.97;2.70;;;4.80;99.90;;;;;;4970494;28;20536;-73
2023/11/17 06:01:09;;;;;;;2.67;2.58;;;4.80;99.90;;;;;;4971320;28;20213;-73
2023/11/17 06:03:37;;;;;;;2.10;2.03;;;4.90;99.90;;;;;;4973449;28;20550;-74
2023/11/17 06:06:04;;;;;;;3.10;2.80;;;4.90;99.90;;;;;;4970156;28;20315;-75
2023/11/17 06:08:31;;;;;;;2.25;2.25;;;4.90;99.90;;;;;;4966073;28;20212;-73
2023/11/17 06:11:00;;;;;;;2.97;2.78;;;4.90;99.90;;;;;;4972573;28;20252;-74
2023/11/17 06:13:26;;;;;;;2.35;2.25;;;4.80;99.90;;;;;;4972094;28;20209;-74
2023/11/17 06:15:53;;;;;;;5.57;3.00;;;4.80;99.90;;;;;;4973117;28;20255;-75
2023/11/17 06:18:20;;;;;;;2.63;2.53;;;4.90;99.90;;;;;;4972352;28;20208;-75
2023/11/17 06:20:49;;;;;;;2.40;2.30;;;4.90;99.90;;;;;;4972806;28;20707;-75
2023/11/17 06:23:17;;;;;;;2.38;2.17;;;4.90;99.90;;;;;;4972743;28;20700;-75
2023/11/17 06:25:45;;;;;;;3.20;3.00;;;4.80;99.90;;;;;;4973077;28;20225;-75
2023/11/17 06:28:13;;;;;;;2.83;2.63;;;4.90;99.90;;;;;;4972606;28;20209;-74
2023/11/17 06:30:40;;;;;;;4.00;3.65;;;4.90;99.90;;;;;;4968557;28;20217;-75
2023/11/17 06:33:07;;;;;;;3.90;3.60;;;4.80;99.90;;;;;;4973381;28;20823;-75
2023/11/17 06:35:33;;;;;;;3.08;2.88;;;4.90;99.90;;;;;;4973970;28;20230;-75
2023/11/17 06:38:03;;;;;;;3.08;2.92;;;4.90;99.90;;;;;;4970966;28;20201;-75
2023/11/17 06:40:30;;;;;;;3.15;2.95;;;4.90;99.90;;;;;;4972973;28;20726;-75
2023/11/17 06:42:58;;;;;;;2.63;2.53;;;4.90;99.90;;;;;;4973500;28;20201;-75
2023/11/17 06:45:27;;;;;;;4.03;3.75;;;4.90;99.90;;;;;;4972251;28;20343;-75
2023/11/17 06:47:53;;;;;;;5.75;5.25;;;4.90;99.90;;;;;;4977023;28;20577;-73
2023/11/17 06:50:22;;;;;;;5.40;4.95;;;4.90;99.90;;;;;;4977644;28;20204;-74
2023/11/17 06:52:48;;;;;;;5.50;5.00;;;4.90;99.90;;;;;;4973618;28;20554;-74
2023/11/17 06:55:15;;;;;;;4.78;4.47;;;4.90;99.90;;;;;;4972740;28;20870;-74
2023/11/17 06:57:43;;;;;;;4.25;3.95;;;4.90;99.90;;;;;;4968671;28;20220;-74
2023/11/17 07:00:12;;;;;;;4.05;3.80;;;4.90;99.90;;;;;;4961132;28;20318;-74
2023/11/17 07:02:40;;;;;;;3.03;2.90;;;4.90;99.90;;;;;;4968736;28;20220;-74
2023/11/17 07:05:10;;;;;;;4.32;3.92;;;4.90;99.90;;;;;;4965887;28;20220;-74
2023/11/17 07:07:37;;;;;;;4.63;3.92;;;5.00;99.90;;;;;;4979108;28;20205;-73
2023/11/17 07:10:07;;;;;;;4.95;3.45;;;4.90;99.90;;;;;;4976020;28;20207;-71
2023/11/17 07:12:35;;;;;;;3.15;2.85;;;5.00;99.90;;;;;;4971458;28;20240;-72
2023/11/17 07:15:03;;;;;;;5.72;5.00;;;5.00;99.90;;;;;;4973622;28;20299;-72
2023/11/17 07:17:29;;;;;;;4.35;3.70;;;5.00;99.90;;;;;;4975910;28;20213;-72
2023/11/17 07:19:58;;;;;;;4.20;3.75;;;5.10;99.90;;;;;;4973487;28;20224;-73
2023/11/17 07:22:26;;;;;;;5.03;4.53;;;5.10;99.90;;;;;;4966318;28;20232;-72
2023/11/17 07:24:52;;;;;;;4.55;4.15;;;5.00;99.90;;;;;;4967017;28;20227;-72
2023/11/17 07:27:19;;;;;;;3.78;3.47;;;5.10;99.90;;;;;;4970018;28;20212;-72
2023/11/17 07:29:46;;;;;;;2.70;2.50;;;5.10;99.90;;;;;;4968488;28;20220;-72
2023/11/17 07:32:13;;;;;;;3.60;3.30;;;5.10;99.90;;;;;;4963850;28;20212;-72
2023/11/17 07:34:39;;;;;;;4.25;3.40;;;5.10;99.90;;;;;;4966985;28;20228;-73
2023/11/17 07:37:07;;;;;;;3.60;3.03;;;5.10;99.90;;;;;;4970742;28;20654;-72
2023/11/17 07:39:34;;;;;;;3.85;3.13;;;5.10;99.90;;;;;;4965988;28;20232;-76
2023/11/17 07:42:01;;;;;;;3.80;3.22;;;5.10;99.90;;;;;;4971370;28;20204;-72
2023/11/17 07:44:27;;;;;;;3.95;2.85;;;5.10;99.90;;;;;;4968091;28;20741;-73
2023/11/17 07:46:56;;;;;;;2.65;2.55;;;5.10;99.90;;;;;;4971594;28;20231;-73
2023/11/17 07:49:25;;;;;;;2.28;2.10;;;5.10;99.90;;;;;;4970390;28;20408;-73
2023/11/17 07:51:53;;;;;;;2.53;2.17;;;5.10;99.90;;;;;;4968867;28;20227;-73
2023/11/17 07:54:22;;;;;;;6.45;2.78;;;5.10;99.90;;;;;;4970556;28;20224;-73
2023/11/17 07:56:50;;;;;;;6.38;3.95;;;5.10;99.90;;;;;;4969916;28;20499;-72
2023/11/17 07:59:19;;;;;;;2.20;2.00;;;5.10;99.90;;;;;;4970269;28;20717;-73
2023/11/17 08:01:46;;;;;;;2.25;2.25;;;5.10;99.90;;;;;;4970663;28;20205;-73
2023/11/17 08:04:13;;;;;;;1.70;1.60;;;5.10;99.90;;;;;;4971626;28;20270;-73
2023/11/17 08:06:40;;;;;;;1.48;1.48;;;5.10;99.90;;;;;;4969013;28;20668;-73
2023/11/17 08:09:10;;;;;;;2.80;1.40;;;5.00;99.90;;;;;;4971954;28;20292;-73
2023/11/17 08:11:38;;;;;;;2.67;2.55;;;5.00;99.90;;;;;;4968682;28;20224;-73
2023/11/17 08:14:05;;;;;;;0.90;0.90;;;4.90;99.90;;;;;;4972760;28;20546;-73
2023/11/17 08:16:33;;;;;;;1.10;1.10;;;4.80;99.90;;;;;;4974135;28;20217;-73
2023/11/17 08:19:00;;;;;;;1.42;1.42;;;4.80;99.90;;;;;;4974103;28;20204;-73
2023/11/17 08:21:27;;;;;;;4.10;1.45;;;4.80;99.90;;;;;;4972622;28;20212;-71
2023/11/17 08:23:54;;;;;;;1.30;1.30;;;4.80;99.90;;;;;;4969549;28;20224;-72
2023/11/17 08:26:21;;;;;;;2.03;1.67;;;4.80;99.90;;;;;;4969915;28;20232;-72
2023/11/17 08:28:49;;;;;;;1.80;1.67;;;4.80;99.90;;;;;;4965761;28;20208;-72
2023/11/17 08:31:15;;;;;;;2.92;2.72;;;4.80;99.90;;;;;;4967833;28;20201;-73
2023/11/17 08:33:43;;;;;;;1.60;1.17;;;4.80;99.90;;;;;;4967739;28;20216;-72
2023/11/17 08:36:10;;;;;;;2.85;2.58;;;4.90;99.90;;;;;;4961032;28;21634;-74
2023/11/17 08:38:41;;;;;;;1.58;1.58;;;4.90;99.90;;;;;;4965412;28;20231;-72
2023/11/17 08:41:10;;;;;;;1.13;1.13;;;4.90;99.90;;;;;;4966172;28;20775;-75
2023/11/17 08:43:37;;;;;;;2.15;1.40;;;4.90;99.90;;;;;;4966437;28;20208;-75
2023/11/17 08:46:06;;;;;;;2.80;2.55;;;5.00;99.90;;;;;;4964445;28;20228;-72
2023/11/17 08:48:34;;;;;;;1.73;1.73;;;5.00;99.90;;;;;;4966518;28;20579;-73
2023/11/17 08:51:00;;;;;;;2.35;1.70;;;5.00;99.90;;;;;;4973607;28;20197;-74
2023/11/17 08:53:27;;;;;;;3.45;1.35;;;5.10;99.90;;;;;;4970227;28;20322;-73
2023/11/17 08:55:54;;;;;;;2.80;2.60;;;5.10;99.90;;;;;;4974028;28;20220;-73
2023/11/17 08:58:21;;;;;;;10.60;7.70;;;5.10;99.90;;;;;;4968438;28;20209;-73
2023/11/17 09:00:49;;;;;;;2.28;1.70;;;5.10;99.90;;;;;;4972766;28;20224;-72
2023/11/17 09:03:17;;;;;;;2.00;1.90;;;5.20;99.90;;;;;;4972955;28;20205;-72
2023/11/17 09:05:46;;;;;;;1.42;1.38;;;5.20;99.90;;;;;;4969324;28;20240;-73
2023/11/17 09:08:13;;;;;;;1.92;1.83;;;5.20;99.90;;;;;;4967188;28;20205;-72
2023/11/17 09:10:40;;;;;;;1.70;1.70;;;5.30;99.90;;;;;;4967672;28;20205;-75
2023/11/17 09:13:08;;;;;;;2.60;2.50;;;5.30;99.90;;;;;;4965754;28;22206;-71
2023/11/17 09:15:35;;;;;;;3.40;3.10;;;5.40;99.90;;;;;;4972016;28;20742;-72
2023/11/17 09:18:02;;;;;;;2.50;2.30;;;5.40;99.90;;;;;;4972974;28;20556;-72
2023/11/17 09:20:30;;;;;;;2.83;2.15;;;5.40;99.90;;;;;;4973250;28;20228;-72
2023/11/17 09:22:56;;;;;;;2.80;2.65;;;5.50;99.90;;;;;;4967122;28;20234;-73
2023/11/17 09:25:24;;;;;;;2.15;2.05;;;5.60;99.90;;;;;;4970034;28;20252;-72
2023/11/17 09:27:53;;;;;;;2.83;2.53;;;5.60;99.90;;;;;;4969634;28;20340;-72
2023/11/17 09:30:21;;;;;;;2.65;2.55;;;5.60;99.90;;;;;;4971770;28;20236;-72
2023/11/17 09:32:49;;;;;;;2.30;2.20;;;5.60;99.90;;;;;;4970116;28;20213;-73
2023/11/17 09:35:17;;;;;;;1.80;1.80;;;5.70;99.90;;;;;;4973538;28;20231;-73
2023/11/17 09:37:50;;;;;;;2.60;2.45;;;5.70;99.90;;;;;;4973795;28;20652;-72
2023/11/17 09:40:20;;;;;;;3.08;2.88;;;5.80;99.90;;;;;;4970702;28;20221;-72
2023/11/17 09:42:49;;;;;;;3.47;2.80;;;5.80;99.90;;;;;;4970254;28;20267;-72
2023/11/17 09:45:20;;;;;;;2.83;2.72;;;5.80;99.90;;;;;;4972236;28;20240;-72
2023/11/17 09:47:50;;;;;;;1.90;1.80;;;5.90;99.90;;;;;;4971180;28;20208;-72
2023/11/17 09:50:19;;;;;;;2.10;2.00;;;5.90;99.90;;;;;;4972036;28;20208;-72
2023/11/17 09:52:48;;;;;;;2.08;2.08;;;5.90;99.90;;;;;;4969089;28;20204;-71
2023/11/17 09:55:17;;;;;;;3.55;2.85;;;6.00;99.90;;;;;;4972793;28;20224;-72
2023/11/17 09:57:46;;;;;;;2.67;2.05;;;6.10;99.90;;;;;;4970440;28;20208;-72
2023/11/17 10:00:20;;;;;;;2.42;2.33;;;6.10;99.90;;;;;;4973423;28;20260;-72
2023/11/17 10:02:51;;;;;;;2.25;2.08;;;6.10;99.90;;;;;;4969588;28;20208;-72
2023/11/17 10:05:19;;;;;;;2.40;1.80;;;6.20;99.90;;;;;;4967303;28;20748;-71
2023/11/17 10:07:50;;;;;;;1.40;1.30;;;6.20;99.90;;;;;;4968621;28;20204;-72
2023/11/17 10:10:19;;;;;;;1.98;1.90;;;6.30;99.90;;;;;;4971643;28;20209;-71
2023/11/17 10:12:49;;;;;;;3.17;2.45;;;6.40;99.90;;;;;;4970446;28;20608;-71
2023/11/17 10:15:18;;;;;;;5.30;3.58;;;6.50;99.90;;;;;;4968290;28;20360;-72
2023/11/17 10:17:48;;;;;;;2.00;1.88;;;6.70;99.90;;;;;;4963843;28;20213;-71
2023/11/17 10:20:18;;;;;;;2.20;2.10;;;6.70;99.90;;;;;;4971730;28;20225;-71
2023/11/17 10:22:50;;;;;;;2.85;2.67;;;6.70;99.90;;;;;;4963143;28;20348;-71
2023/11/17 10:25:19;;;;;;;3.42;3.13;;;6.70;99.90;;;;;;4960705;28;20308;-71
2023/11/17 10:27:49;;;;;;;3.25;2.95;;;6.70;99.90;;;;;;4967243;28;20698;-72
2023/11/17 10:30:17;;;;;;;4.63;4.22;;;6.80;99.90;;;;;;4965553;28;20209;-72
2023/11/17 10:32:57;;;;;;;3.47;3.25;;;6.80;99.90;;;;;;4969553;28;20211;-71
2023/11/17 10:35:31;;;;;;;3.28;3.08;;;6.80;99.90;;;;;;4969543;28;20232;-71
2023/11/17 10:37:59;;;;;;;4.78;4.45;;;6.70;99.90;;;;;;4971050;28;20287;-70
2023/11/17 10:40:28;;;;;;;4.10;3.90;;;6.70;99.90;;;;;;4967705;28;20228;-71
2023/11/17 10:43:04;;;;;;;5.70;5.30;;;6.60;99.90;;;;;;4959682;28;20726;-71
2023/11/17 10:45:32;;;;;;;5.53;5.13;;;6.60;99.90;;;;;;4967416;28;20255;-71
2023/11/17 10:47:59;;;;;;;5.43;5.03;;;6.60;99.90;;;;;;4966646;28;20280;-72
2023/11/17 10:50:28;;;;;;;5.80;5.40;;;6.60;99.90;;;;;;4968067;28;20232;-74
2023/11/17 10:52:55;;;;;;;5.60;5.10;;;6.70;99.90;;;;;;4967691;28;20213;-73
2023/11/17 10:55:35;;;;;;;7.28;6.57;;;6.90;99.90;;;;;;4971660;28;20232;-73
2023/11/17 10:58:06;;;;;;;5.60;5.05;;;6.90;99.90;;;;;;4968180;28;20243;-72
2023/11/17 11:00:34;;;;;;;4.28;3.97;;;7.00;99.90;;;;;;4969579;28;20221;-73
2023/11/17 11:03:02;;;;;;;5.60;5.10;;;7.00;99.90;;;;;;4962746;28;20354;-73
2023/11/17 11:05:29;;;;;;;5.60;5.10;;;6.90;99.90;;;;;;4967504;28;20231;-72
2023/11/17 11:07:57;;;;;;;5.03;4.45;;;7.00;99.90;;;;;;4965907;28;20200;-72
2023/11/17 11:10:27;;;;;;;5.88;5.38;;;7.10;99.90;;;;;;4970673;28;20232;-71
2023/11/17 11:12:56;;;;;;;4.50;4.20;;;7.20;99.90;;;;;;4965484;28;20213;-69
2023/11/17 11:15:24;;;;;;;4.10;3.80;;;7.30;99.90;;;;;;4971227;28;20247;-69
2023/11/17 11:17:56;;;;;;;3.47;3.28;;;7.30;99.90;;;;;;4968122;28;20209;-71
2023/11/17 11:20:23;;;;;;;3.70;3.50;;;7.20;99.90;;;;;;4971641;28;20229;-72
2023/11/17 11:22:52;;;;;;;3.75;3.45;;;7.20;99.90;;;;;;4969066;28;20212;-71
2023/11/17 11:25:19;;;;;;;4.32;3.67;;;7.10;99.90;;;;;;4969371;28;20256;-72
2023/11/17 11:27:48;;;;;;;2.60;2.50;;;7.10;99.90;;;;;;4968446;28;20675;-72
2023/11/17 11:30:17;;;;;;;3.53;3.22;;;7.10;99.90;;;;;;4970110;28;20283;-70
2023/11/17 11:32:45;;;;;;;4.32;3.58;;;7.00;99.90;;;;;;4967713;28;20667;-71
2023/11/17 11:35:13;;;;;;;6.90;3.75;;;7.10;99.90;;;;;;4970017;28;20236;-71
2023/11/17 11:37:40;;;;;;;3.35;3.05;;;7.20;99.90;;;;;;4970233;28;20209;-72
2023/11/17 11:40:12;;;;;;;2.80;2.70;;;7.20;99.90;;;;;;4968968;28;20646;-71
2023/11/17 11:42:41;;;;;;;3.88;3.58;;;7.20;99.90;;;;;;4968602;28;20212;-71
2023/11/17 11:45:09;;;;;;;4.22;3.75;;;7.20;99.90;;;;;;4967212;28;20329;-72
2023/11/17 11:47:38;;;;;;;3.53;3.33;;;7.20;99.90;;;;;;4963735;28;20201;-74
2023/11/17 11:50:06;;;;;;;3.22;2.90;;;7.20;99.90;;;;;;4965538;28;20208;-71
2023/11/17 11:52:41;;;;;;;3.58;3.28;;;7.10;99.90;;;;;;4969327;28;20659;-71
2023/11/17 11:55:08;;;;;;;3.50;3.20;;;7.00;99.90;;;;;;4956630;28;20246;-70
2023/11/17 11:57:34;;;;;;;2.88;2.78;;;7.00;99.90;;;;;;4962029;28;20659;-70
2023/11/17 12:00:06;;;;;;;3.72;3.55;;;6.90;99.90;;;;;;4964954;28;20221;-71
2023/11/17 12:02:34;;;;;;;3.25;3.05;;;6.90;99.90;;;;;;4966133;28;20209;-73
2023/11/17 12:05:04;;;;;;;3.60;3.42;;;6.80;99.90;;;;;;4968491;28;20271;-70
2023/11/17 12:07:35;;;;;;;2.67;2.50;;;6.70;99.90;;;;;;4968931;28;20209;-72
2023/11/17 12:10:04;;;;;;;3.10;2.90;;;6.70;99.90;;;;;;4966565;28;20652;-71
2023/11/17 12:12:31;;;;;;;2.92;2.83;;;6.70;99.90;;;;;;4965050;28;20208;-70
2023/11/17 12:14:58;;;;;;;3.60;3.40;;;6.60;99.90;;;;;;4966163;28;20228;-71
2023/11/17 12:17:30;;;;;;;3.00;2.75;;;6.60;99.90;;;;;;4968290;28;20220;-71
2023/11/17 12:20:26;;;;;;;3.47;3.30;;;6.60;99.90;;;;;;4964952;28;20232;-70
2023/11/17 12:22:57;;;;;;;2.88;2.78;;;6.50;99.90;;;;;;4968917;28;20335;-72
2023/11/17 12:25:25;;;;;;;3.08;2.88;;;6.60;99.90;;;;;;4974551;28;20232;-72
2023/11/17 12:27:52;;;;;;;2.80;2.55;;;6.60;99.90;;;;;;4969230;28;20213;-71
2023/11/17 12:30:21;;;;;;;3.95;3.65;;;6.60;99.90;;;;;;4967417;28;20334;-71
2023/11/17 12:32:51;;;;;;;7.50;6.43;;;6.60;99.90;;;;;;4972470;28;20216;-70
2023/11/17 12:35:23;;;;;;;4.00;3.80;;;6.70;99.90;;;;;;4966884;28;20239;-72
2023/11/17 12:37:51;;;;;;;5.70;5.18;;;6.80;99.90;;;;;;4966799;28;20572;-71
2023/11/17 12:40:19;;;;;;;3.90;3.70;;;6.80;99.90;;;;;;4965579;28;20296;-71
2023/11/17 12:42:47;;;;;;;7.35;5.28;;;6.90;99.90;;;;;;4966688;28;20224;-71
2023/11/17 12:45:15;;;;;;;3.85;3.60;;;6.90;99.90;;;;;;4970887;28;20271;-71
2023/11/17 12:47:42;;;;;;;4.70;4.30;;;6.90;99.90;;;;;;4968725;28;20240;-73
2023/11/17 12:50:11;;;;;;;4.57;4.18;;;6.80;99.90;;;;;;4971431;28;20265;-71
2023/11/17 12:52:54;;;;;;;7.20;6.60;;;6.80;99.90;;;;;;4969046;28;20626;-71
2023/11/17 12:55:21;;;;;;;4.07;3.75;;;6.80;99.90;;;;;;4972413;28;20228;-72
2023/11/17 12:57:49;;;;;;;3.80;3.60;;;6.80;99.90;;;;;;4974360;28;20216;-71
2023/11/17 13:00:20;;;;;;;3.42;3.30;;;6.80;99.90;;;;;;4974552;28;20232;-71
2023/11/17 13:02:48;;;;;;;4.78;4.45;;;6.90;99.90;;;;;;4971678;28;20240;-72
2023/11/17 13:05:15;;;;;;;3.92;3.67;;;6.80;99.90;;;;;;4973627;28;20252;-71
2023/11/17 13:07:44;;;;;;;5.35;4.95;;;6.80;99.90;;;;;;4972882;28;20239;-71
2023/11/17 13:10:11;;;;;;;4.35;4.05;;;6.80;99.90;;;;;;4973249;28;20213;-70
2023/11/17 13:12:38;;;;;;;4.55;4.13;;;6.80;99.90;;;;;;4970029;28;20550;-70
2023/11/17 13:15:09;;;;;;;3.97;3.75;;;6.80;99.90;;;;;;4974304;28;20292;-71
2023/11/17 13:17:36;;;;;;;3.53;3.35;;;6.70;99.90;;;;;;4974061;28;20250;-73
2023/11/17 13:20:07;;;;;;;3.85;3.60;;;6.70;99.90;;;;;;4976109;28;20239;-72
2023/11/17 13:22:34;;;;;;;6.22;4.70;;;6.70;99.90;;;;;;4971983;28;20229;-71
2023/11/17 13:25:07;;;;;;;4.95;4.65;;;6.70;99.90;;;;;;4973396;28;20248;-71
2023/11/17 13:27:37;;;;;;;3.55;3.35;;;6.60;99.90;;;;;;4970070;28;20200;-70
2023/11/17 13:30:09;;;;;;;6.35;4.97;;;6.70;99.90;;;;;;4969335;28;20231;-72
2023/11/17 13:32:48;;;;;;;3.83;3.63;;;6.70;99.90;;;;;;4971967;28;20207;-71
2023/11/17 13:35:18;;;;;;;4.50;3.50;;;6.70;99.90;;;;;;4964944;28;24735;-71
2023/11/17 13:37:45;;;;;;;3.20;3.00;;;6.60;99.90;;;;;;4969810;28;20260;-72
2023/11/17 13:40:25;;;;;;;4.50;4.25;;;6.60;99.90;;;;;;4971764;28;20289;-73
2023/11/17 13:42:54;;;;;;;3.78;3.47;;;6.60;99.90;;;;;;4972174;28;20658;-72
2023/11/17 13:45:21;;;;;;;4.50;4.10;;;6.60;99.90;;;;;;4968352;28;20703;-70
2023/11/17 13:48:00;;;;;;;4.60;4.30;;;6.50;99.90;;;;;;4964395;28;20204;-72
2023/11/17 13:50:28;;;;;;;5.00;4.60;;;6.50;99.90;;;;;;4967240;28;20213;-72
2023/11/17 13:52:55;;;;;;;4.47;4.07;;;6.40;99.90;;;;;;4970391;28;20208;-71
2023/11/17 13:55:25;;;;;;;5.32;4.93;;;6.40;99.90;;;;;;4969020;28;20240;-72
2023/11/17 13:57:54;;;;;;;3.85;3.60;;;6.40;99.90;;;;;;4968438;28;20250;-72
2023/11/17 14:00:24;;;;;;;3.40;3.20;;;6.40;99.90;;;;;;4968493;28;20216;-71
2023/11/17 14:02:50;;;;;;;4.00;3.70;;;6.40;99.90;;;;;;4963116;28;20453;-71
2023/11/17 14:05:17;;;;;;;3.50;3.30;;;6.40;99.90;;;;;;4963068;28;20294;-71
2023/11/17 14:07:44;;;;;;;2.45;2.45;;;6.30;99.90;;;;;;4968326;28;20236;-72
2023/11/17 14:10:13;;;;;;;2.53;2.42;;;6.20;99.90;;;;;;4972233;28;20219;-71
2023/11/17 14:12:41;;;;;;;2.67;2.58;;;6.20;99.90;;;;;;4969545;28;20224;-71
2023/11/17 14:15:10;;;;;;;3.30;3.20;;;6.20;99.90;;;;;;4968496;28;20244;-70
2023/11/17 14:17:37;;;;;;;3.45;3.15;;;6.20;99.90;;;;;;4968719;28;20324;-71
2023/11/17 14:20:06;;;;;;;3.05;2.95;;;6.20;99.90;;;;;;4970478;28;20647;-71
2023/11/17 14:22:35;;;;;;;4.22;3.80;;;6.20;99.90;;;;;;4969363;28;20232;-71
2023/11/17 14:25:02;;;;;;;2.60;2.50;;;6.10;99.90;;;;;;4969548;28;20391;-72
2023/11/17 14:27:29;;;;;;;2.67;2.58;;;6.10;99.90;;;;;;4972354;28;20209;-73
2023/11/17 14:29:57;;;;;;;3.22;3.13;;;6.10;99.90;;;;;;4971094;28;20235;-71
2023/11/17 14:32:24;;;;;;;5.15;3.47;;;6.10;99.90;;;;;;4970972;28;20213;-71
2023/11/17 14:34:51;;;;;;;3.80;3.50;;;6.10;99.90;;;;;;4971034;28;20320;-71
2023/11/17 14:37:19;;;;;;;3.17;2.97;;;6.00;99.90;;;;;;4966505;28;20208;-70
2023/11/17 14:39:46;;;;;;;6.22;4.25;;;6.00;99.90;;;;;;4968102;28;20212;-71
2023/11/17 14:42:13;;;;;;;2.55;2.45;;;6.00;99.90;;;;;;4969234;28;20379;-71
2023/11/17 14:44:40;;;;;;;4.90;4.60;;;6.00;99.90;;;;;;4969282;28;20233;-72
2023/11/17 14:47:08;;;;;;;4.85;4.55;;;6.00;99.90;;;;;;4968653;28;20219;-71
2023/11/17 14:49:35;;;;;;;3.45;3.22;;;6.00;99.90;;;;;;4969669;28;20219;-70
2023/11/17 14:52:03;;;;;;;4.80;4.40;;;6.00;99.90;;;;;;4968770;28;20216;-72
2023/11/17 14:54:30;;;;;;;3.80;3.60;;;6.00;99.90;;;;;;4964556;28;20710;-71
2023/11/17 14:56:57;;;;;;;3.03;2.90;;;6.00;99.90;;;;;;4966352;28;20212;-70
2023/11/17 14:59:24;;;;;;;3.60;3.33;;;5.90;99.90;;;;;;4962566;28;20221;-70
2023/11/17 15:01:51;;;;;;;3.38;3.05;;;5.90;99.90;;;;;;4961515;28;20232;-72
2023/11/17 15:04:20;;;;;;;5.03;4.60;;;5.90;99.90;;;;;;4967518;28;20403;-72
2023/11/17 15:06:47;;;;;;;4.38;3.97;;;5.90;99.90;;;;;;4967506;28;20656;-72
2023/11/17 15:09:15;;;;;;;5.80;5.20;;;5.90;99.90;;;;;;4966348;28;20259;-71
2023/11/17 15:11:43;;;;;;;4.68;4.28;;;5.90;99.90;;;;;;4970529;28;20204;-72
2023/11/17 15:14:12;;;;;;;6.63;4.90;;;5.80;99.90;;;;;;4969975;28;20210;-71
2023/11/17 15:16:39;;;;;;;6.05;5.38;;;5.70;99.90;;;;;;4965535;28;20731;-72
2023/11/17 15:19:05;;;;;;;6.38;5.78;;;5.70;99.90;;;;;;4961205;28;20205;-70
2023/11/17 15:21:38;;;;;;;5.63;4.93;;;5.60;99.90;;;;;;4968995;28;20601;-71
2023/11/17 15:24:08;;;;;;;6.28;5.70;;;5.60;99.90;;;;;;4965909;28;20208;-71
2023/11/17 15:26:36;;;;;;;5.43;5.00;;;5.50;99.90;;;;;;4967188;28;20214;-72
2023/11/17 15:29:04;;;;;;;6.78;5.47;;;5.50;99.90;;;;;;4968905;28;20343;-72
2023/11/17 15:31:32;;;;;;;6.45;5.75;;;5.50;99.90;;;;;;4959057;28;20240;-72
2023/11/17 15:34:01;;;;;;;7.43;6.25;;;5.40;99.90;;;;;;4969659;28;20215;-71
2023/11/17 15:36:28;;;;;;;8.68;6.85;;;5.40;99.90;;;;;;4973637;28;20228;-74
2023/11/17 15:38:59;;;;;;;4.93;4.53;;;5.30;99.90;;;;;;4970502;28;20208;-72
2023/11/17 15:41:31;;;;;;;7.05;6.43;;;5.30;99.90;;;;;;4971462;28;20286;-72
2023/11/17 15:43:58;;;;;;;6.35;5.78;;;5.20;99.90;;;;;;5002809;23;20727;-76
2023/11/17 15:46:26;;;;;;;6.22;5.63;;;5.20;99.90;;;;;;4985325;28;20204;-76
2023/11/17 15:48:57;;;;;;;6.82;6.22;;;5.20;99.90;;;;;;4987380;28;20262;-75
2023/11/17 15:51:24;;;;;;;5.60;5.10;;;5.10;99.90;;;;;;4986720;28;20263;-74
2023/11/17 15:53:52;;;;;;;7.18;6.47;;;5.10;99.90;;;;;;4970121;28;20228;-75
2023/11/17 15:56:20;;;;;;;6.85;6.20;;;5.10;99.90;;;;;;4964161;28;20209;-74
2023/11/17 15:58:46;;;;;;;5.38;4.88;;;5.10;99.90;;;;;;4967051;28;20222;-74
2023/11/17 16:01:14;;;;;;;6.90;6.13;;;5.00;99.90;;;;;;4972323;28;20231;-74
2023/11/17 16:03:41;;;;;;;8.32;7.15;;;5.00;99.90;;;;;;4971972;28;20255;-75
2023/11/17 16:06:08;;;;;;;6.40;5.80;;;5.00;99.90;;;;;;4968277;28;20213;-74
2023/11/17 16:08:35;;;;;;;6.60;5.20;;;4.90;99.90;;;;;;4968899;28;20299;-74
2023/11/17 16:11:08;;;;;;;6.07;5.50;;;4.90;99.90;;;;;;4969687;28;20208;-75
2023/11/17 16:13:36;;;;;;;6.22;5.60;;;4.90;99.90;;;;;;4971244;28;20228;-76
2023/11/17 16:16:06;;;;;;;6.80;4.85;;;4.90;99.90;;;;;;4976145;28;20213;-75
2023/11/17 16:18:33;;;;;;;5.70;5.20;;;4.90;99.90;;;;;;4966483;28;20843;-75
2023/11/17 16:20:59;;;;;;;11.82;6.40;;;4.90;99.90;;;;;;4968302;28;20220;-74
2023/11/17 16:23:26;;;;;;;9.60;6.18;;;4.90;99.90;;;;;;4972879;28;20243;-75
2023/11/17 16:25:53;;;;;;;8.95;5.35;;;4.90;99.90;;;;;;4967300;28;20204;-75
2023/11/17 16:28:20;;;;;;;5.22;4.82;;;4.90;99.90;;;;;;4969090;28;20221;-75
2023/11/17 16:30:48;;;;;;;7.07;6.32;;;4.90;99.90;;;;;;4968437;28;20214;-75
2023/11/17 16:33:17;;;;;;;5.50;4.82;;;4.90;99.90;;;;;;4965900;28;20228;-76
2023/11/17 16:35:44;;;;;;;5.15;4.60;;;4.90;99.90;;;;;;4966823;28;20212;-75
2023/11/17 16:38:11;;;;;;;7.50;5.25;;;4.90;99.90;;;;;;4971995;28;20209;-75
2023/11/17 16:40:39;;;;;;;4.15;3.85;;;4.90;99.90;;;;;;4971207;28;20695;-74
2023/11/17 16:43:07;;;;;;;3.90;3.67;;;5.00;99.90;;;;;;4969523;28;20331;-74
2023/11/17 16:45:35;;;;;;;4.30;3.88;;;5.00;99.90;;;;;;4967456;28;20231;-75
2023/11/17 16:48:05;;;;;;;6.20;4.80;;;5.00;99.90;;;;;;4963629;28;20668;-76
2023/11/17 16:50:37;;;;;;;4.07;3.88;;;5.00;99.90;;;;;;4972127;28;20208;-75
2023/11/17 16:53:05;;;;;;;4.15;3.40;;;5.00;99.90;;;;;;4964295;28;20228;-75
2023/11/17 16:55:32;;;;;;;7.40;5.15;;;5.20;99.90;;;;;;4966854;28;20216;-76
2023/11/17 16:57:59;;;;;;;5.05;4.55;;;5.10;99.90;;;;;;4968057;28;20648;-75
2023/11/17 17:00:29;;;;;;;4.75;4.35;;;5.10;99.90;;;;;;4967202;28;20601;-75
2023/11/17 17:02:57;;;;;;;6.38;5.57;;;5.10;99.90;;;;;;4967232;28;20239;-75
2023/11/17 17:05:25;;;;;;;6.40;5.30;;;5.10;99.90;;;;;;4967052;28;20236;-75
2023/11/17 17:07:54;;;;;;;5.57;4.35;;;5.20;99.90;;;;;;4967285;28;20590;-75
2023/11/17 17:10:21;;;;;;;5.70;5.20;;;5.10;99.90;;;;;;4965277;28;20212;-75
2023/11/17 17:12:48;;;;;;;9.88;5.80;;;5.10;99.90;;;;;;4971699;28;20225;-75
2023/11/17 17:15:17;;;;;;;7.65;5.35;;;5.10;99.90;;;;;;4970064;28;20239;-75
2023/11/17 17:17:46;;;;;;;8.05;5.57;;;5.10;99.90;;;;;;4971031;28;20627;-75
2023/11/17 17:20:13;;;;;;;6.57;6.07;;;5.10;99.90;;;;;;4962766;28;20223;-75
2023/11/17 17:22:46;;;;;;;8.57;6.43;;;5.10;99.90;;;;;;4965302;28;20225;-75
2023/11/17 17:25:15;;;;;;;7.80;6.55;;;5.10;99.90;;;;;;4966959;28;20217;-75
2023/11/17 17:27:43;;;;;;;5.57;5.10;;;5.10;99.90;;;;;;4970410;28;20205;-76
2023/11/17 17:30:12;;;;;;;6.15;5.55;;;5.10;99.90;;;;;;4968932;28;20216;-76
2023/11/17 17:32:40;;;;;;;6.38;5.68;;;5.10;99.90;;;;;;4973984;28;20235;-76
2023/11/17 17:35:07;;;;;;;6.50;5.47;;;5.10;99.90;;;;;;4969678;28;20228;-76
2023/11/17 17:37:36;;;;;;;9.70;6.13;;;5.10;99.90;;;;;;4975606;28;20279;-76
2023/11/17 17:40:11;;;;;;;8.60;6.22;;;5.10;99.90;;;;;;4976418;28;20212;-76
2023/11/17 17:42:40;;;;;;;6.75;6.15;;;5.10;99.90;;;;;;4967252;28;20236;-75
2023/11/17 17:45:09;;;;;;;9.98;6.32;;;5.10;99.90;;;;;;4972484;28;20212;-76
2023/11/17 17:47:37;;;;;;;7.43;5.78;;;5.10;99.90;;;;;;4971813;28;20205;-76
2023/11/17 17:50:05;;;;;;;6.63;6.07;;;5.20;99.90;;;;;;4971603;28;20208;-76
2023/11/17 17:52:33;;;;;;;10.02;8.98;;;5.20;99.90;;;;;;4972990;28;20221;-75
2023/11/17 17:55:00;;;;;;;8.50;6.90;;;5.20;99.90;;;;;;4971350;28;20212;-75
2023/11/17 17:57:29;;;;;;;9.02;6.22;;;5.20;99.90;;;;;;4972972;28;20213;-75
2023/11/17 17:59:56;;;;;;;6.75;6.07;;;5.20;99.90;;;;;;4965925;28;20206;-75
2023/11/17 18:02:23;;;;;;;6.65;5.55;;;5.20;99.90;;;;;;4971030;28;20228;-75
2023/11/17 18:04:49;;;;;;;7.55;5.40;;;5.20;99.90;;;;;;4970363;28;20218;-75